Time;durP1;ratioP1;P1;durP2;ratioP2;P2;SDS_P1;SDS_P2;PMS_P1;PMS_P2;Temp;Humidity;BMP_temperature;BMP_pressure;BME280_temperature;BME280_humidity;BME280_pressure;Samples;Min_cycle;Max_cycle;Signal;HPM_P1;HPM_P2
2019/07/24 00:01:10;;;;;;;7.2;4.2;;;;;;;23.22;63.09082;962.5817;;;;
2019/07/24 00:03:36;;;;;;;4.9;4;;;;;;;23.19;62.89746;962.5591;;;;
2019/07/24 00:06:01;;;;;;;6.4;4.7;;;;;;;23.2;62.54297;962.5403;;;;
2019/07/24 00:08:26;;;;;;;5.5;4.4;;;;;;;23.17;62.76465;962.4939;;;;
2019/07/24 00:10:51;;;;;;;6.4;4.3;;;;;;;23.15;62.84375;962.4468;;;;
2019/07/24 00:13:16;;;;;;;6.6;4.1;;;;;;;23.11;63.27734;962.3879;;;;
2019/07/24 00:15:41;;;;;;;9.2;4.5;;;;;;;23.14;62.85547;962.3756;;;;
2019/07/24 00:18:06;;;;;;;6.5;4.5;;;;;;;23.18;63.08398;962.3239;;;;
2019/07/24 00:20:31;;;;;;;5.5;4.3;;;;;;;23.17;62.52637;962.3417;;;;
2019/07/24 00:22:57;;;;;;;4.4;3.8;;;;;;;23.17;62.9541;962.3574;;;;
2019/07/24 00:25:22;;;;;;;4.7;4.1;;;;;;;23.16;62.73926;962.2878;;;;
2019/07/24 00:27:47;;;;;;;6.2;4.5;;;;;;;23.13;63.08984;962.2952;;;;
2019/07/24 00:30:12;;;;;;;5.3;4.8;;;;;;;23.12;63.10059;962.2762;;;;
2019/07/24 00:32:37;;;;;;;6.1;4.6;;;;;;;23.1;63.17871;962.2155;;;;
2019/07/24 00:35:03;;;;;;;6.6;4.7;;;;;;;23.08;63.40332;962.2233;;;;
2019/07/24 00:37:28;;;;;;;6.5;4.4;;;;;;;23.1;63.21582;962.2103;;;;
2019/07/24 00:39:53;;;;;;;7;4.8;;;;;;;23.13;63.26758;962.2321;;;;
2019/07/24 00:42:18;;;;;;;6.9;4.7;;;;;;;23.12;63.39648;962.2456;;;;
2019/07/24 00:45:36;;;;;;;5.5;4.8;;;;;;;23.12;63.5498;962.1948;;;;
2019/07/24 00:48:01;;;;;;;5.8;5;;;;;;;23.09;64.26855;962.1774;;;;
2019/07/24 00:50:26;;;;;;;6;4.8;;;;;;;23.01;64.19824;962.0948;;;;
2019/07/24 00:52:51;;;;;;;7.1;4.6;;;;;;;22.96;64.28516;962.0811;;;;
2019/07/24 00:55:16;;;;;;;7.2;5;;;;;;;22.87;64.82813;962.0554;;;;
2019/07/24 00:57:41;;;;;;;7.6;4.7;;;;;;;22.84;65.08301;962.0547;;;;
2019/07/24 01:00:06;;;;;;;7.7;4.7;;;;;;;22.78;65.3125;962.0492;;;;
2019/07/24 01:02:31;;;;;;;5.9;4.6;;;;;;;22.74;64.91504;962.0589;;;;
2019/07/24 01:04:56;;;;;;;7;4.7;;;;;;;22.7;65.3125;962.0671;;;;
2019/07/24 01:07:21;;;;;;;9;4.5;;;;;;;22.68;65.49902;962.0505;;;;
2019/07/24 01:09:47;;;;;;;6;4.7;;;;;;;22.59;66.07715;962.0352;;;;
2019/07/24 01:12:12;;;;;;;6.3;4.7;;;;;;;22.56;65.91797;962.0326;;;;
2019/07/24 01:14:37;;;;;;;7.3;5;;;;;;;22.55;65.95215;962.06;;;;
2019/07/24 01:17:02;;;;;;;6.8;4.9;;;;;;;22.5;66.06348;962.0737;;;;
2019/07/24 01:19:27;;;;;;;7.7;5;;;;;;;22.48;66.56934;962.0583;;;;
2019/07/24 01:21:52;;;;;;;8;5;;;;;;;22.47;66.61426;961.999;;;;
2019/07/24 01:24:17;;;;;;;6.3;4.7;;;;;;;22.4;66.76855;961.9639;;;;
2019/07/24 01:26:42;;;;;;;7.2;5.1;;;;;;;22.38;67.14453;961.9214;;;;
2019/07/24 01:29:07;;;;;;;6;4.6;;;;;;;22.36;67.00098;961.9274;;;;
2019/07/24 01:31:32;;;;;;;7.4;4.8;;;;;;;22.36;66.94238;961.9689;;;;
2019/07/24 01:33:57;;;;;;;6.2;4.5;;;;;;;22.35;66.73828;961.9187;;;;
2019/07/24 01:36:22;;;;;;;6.3;4.9;;;;;;;22.38;67.11035;961.8398;;;;
2019/07/24 01:38:47;;;;;;;7;4.8;;;;;;;22.37;67.04883;961.8191;;;;
2019/07/24 01:41:12;;;;;;;7.4;4.5;;;;;;;22.41;66.79492;961.7859;;;;
2019/07/24 01:43:38;;;;;;;7.5;4.7;;;;;;;22.4;66.49707;961.7762;;;;
2019/07/24 01:46:03;;;;;;;6.6;4.7;;;;;;;22.39;66.68457;961.7715;;;;
2019/07/24 01:48:28;;;;;;;7.2;5.1;;;;;;;22.36;67.15332;961.7939;;;;
2019/07/24 01:50:53;;;;;;;5.8;5;;;;;;;22.36;66.84766;961.8477;;;;
2019/07/24 01:53:18;;;;;;;8.2;4.8;;;;;;;22.36;67.19043;961.8427;;;;
2019/07/24 01:55:43;;;;;;;6.6;4.6;;;;;;;22.35;66.57324;961.8599;;;;
2019/07/24 01:58:08;;;;;;;6.9;5;;;;;;;22.31;66.76855;961.8737;;;;
2019/07/24 02:00:33;;;;;;;6.2;4.8;;;;;;;22.32;66.75781;961.8653;;;;
2019/07/24 02:02:58;;;;;;;7.2;4.9;;;;;;;22.26;67.30469;961.8502;;;;
2019/07/24 02:05:23;;;;;;;6.8;4.8;;;;;;;22.28;66.97754;961.8378;;;;
2019/07/24 02:07:49;;;;;;;6.3;4.9;;;;;;;22.25;67.14941;961.803;;;;
2019/07/24 02:10:14;;;;;;;7.5;5.1;;;;;;;22.17;67.46777;961.8298;;;;
2019/07/24 02:12:39;;;;;;;6.2;5.1;;;;;;;22.14;67.4873;961.7671;;;;
2019/07/24 02:15:04;;;;;;;7.6;5;;;;;;;22.1;67.94141;961.7621;;;;
2019/07/24 02:17:29;;;;;;;5.4;4.9;;;;;;;22.06;68.04102;961.7656;;;;
2019/07/24 02:19:54;;;;;;;6.4;5;;;;;;;22;68.31641;961.7726;;;;
2019/07/24 02:22:19;;;;;;;6;4.9;;;;;;;21.98;68.4668;961.7728;;;;
2019/07/24 02:24:44;;;;;;;7;5.1;;;;;;;21.94;68.8623;961.8122;;;;
2019/07/24 02:27:09;;;;;;;7.7;5.3;;;;;;;21.92;68.96582;961.7651;;;;
2019/07/24 02:29:34;;;;;;;8.5;5.7;;;;;;;21.87;68.61621;961.7216;;;;
2019/07/24 02:32:00;;;;;;;7.6;5.4;;;;;;;21.83;69.41309;961.7239;;;;
2019/07/24 02:34:25;;;;;;;7.5;5.2;;;;;;;21.72;69.85449;961.7391;;;;
2019/07/24 02:36:50;;;;;;;7.5;5.7;;;;;;;21.71;69.81934;961.7291;;;;
2019/07/24 02:39:15;;;;;;;6.8;5.5;;;;;;;21.69;70.36914;961.712;;;;
2019/07/24 02:41:40;;;;;;;8;5.7;;;;;;;21.67;70.35449;961.6926;;;;
2019/07/24 02:44:05;;;;;;;7.9;5.7;;;;;;;21.64;70.44531;961.7388;;;;
2019/07/24 02:46:30;;;;;;;8.2;5.5;;;;;;;21.59;70.55273;961.7665;;;;
2019/07/24 02:48:55;;;;;;;9.5;6;;;;;;;21.48;70.85547;961.7756;;;;
2019/07/24 02:51:20;;;;;;;6.8;5.5;;;;;;;21.36;71.26172;961.7936;;;;
2019/07/24 02:53:46;;;;;;;8.6;5.8;;;;;;;21.38;71.41699;961.7964;;;;
2019/07/24 02:56:11;;;;;;;9.5;6;;;;;;;21.55;70.69043;961.8064;;;;
2019/07/24 02:58:36;;;;;;;8.6;6.1;;;;;;;21.52;71.25293;961.7355;;;;
2019/07/24 03:01:01;;;;;;;8.3;6;;;;;;;21.41;71.90625;961.7054;;;;
2019/07/24 03:03:26;;;;;;;7.7;6.7;;;;;;;21.33;71.45703;961.75;;;;
2019/07/24 03:05:51;;;;;;;8.5;6.3;;;;;;;21.26;71.63379;961.7495;;;;
2019/07/24 03:08:16;;;;;;;8.7;6.5;;;;;;;21.17;72.58789;961.7601;;;;
2019/07/24 03:10:41;;;;;;;9.3;6.4;;;;;;;21.2;73.07422;961.778;;;;
2019/07/24 03:13:06;;;;;;;8.4;6.4;;;;;;;21.21;73.07715;961.7537;;;;
2019/07/24 03:15:31;;;;;;;8.7;6;;;;;;;21.19;73.28613;961.7798;;;;
2019/07/24 03:17:56;;;;;;;6.7;5.9;;;;;;;21.17;73.48242;961.7405;;;;
2019/07/24 03:20:21;;;;;;;8.2;6.2;;;;;;;21.19;72.8623;961.7966;;;;
2019/07/24 03:22:46;;;;;;;10.3;6.5;;;;;;;21.1;73.09473;961.7816;;;;
2019/07/24 03:25:11;;;;;;;9.4;6.6;;;;;;;21.14;72.95898;961.8083;;;;
2019/07/24 03:27:37;;;;;;;8.6;5.8;;;;;;;21.13;73.66504;961.7935;;;;
2019/07/24 03:30:02;;;;;;;10.4;6.3;;;;;;;21.11;73.33105;961.7922;;;;
2019/07/24 03:32:27;;;;;;;10.5;6.3;;;;;;;21.1;73.55469;961.813;;;;
2019/07/24 03:34:52;;;;;;;7.8;6.4;;;;;;;21.13;73.2998;961.7809;;;;
2019/07/24 03:37:17;;;;;;;7.2;5.6;;;;;;;21.12;73.14355;961.7761;;;;
2019/07/24 03:39:42;;;;;;;11.1;6.7;;;;;;;21.02;73.27051;961.7506;;;;
2019/07/24 03:42:07;;;;;;;9.4;6.5;;;;;;;21.02;73.22266;961.7383;;;;
2019/07/24 03:44:32;;;;;;;8;6.4;;;;;;;20.95;74.14258;961.7405;;;;
2019/07/24 03:46:57;;;;;;;8.4;6.6;;;;;;;20.93;74.55176;961.6984;;;;
2019/07/24 03:49:23;;;;;;;9;6.6;;;;;;;20.99;73.5;961.7189;;;;
2019/07/24 03:51:48;;;;;;;10.9;6.7;;;;;;;20.98;73.28613;961.6959;;;;
2019/07/24 03:54:13;;;;;;;10.7;6.5;;;;;;;20.94;74.28223;961.7308;;;;
2019/07/24 03:56:38;;;;;;;9.3;6.7;;;;;;;20.96;74.3916;961.7202;;;;
2019/07/24 03:59:03;;;;;;;15;7.1;;;;;;;20.9;74.32129;961.7332;;;;
2019/07/24 04:02:26;;;;;;;11.2;6.9;;;;;;;20.87;74.62402;961.7261;;;;
2019/07/24 04:04:51;;;;;;;9.7;6.9;;;;;;;20.85;74.56152;961.7472;;;;
2019/07/24 04:07:16;;;;;;;9.4;7.1;;;;;;;20.84;74.13574;961.7878;;;;
2019/07/24 04:09:41;;;;;;;11.3;7.3;;;;;;;20.88;74.2832;961.8535;;;;
2019/07/24 04:12:07;;;;;;;9.5;7.1;;;;;;;20.85;74.56152;961.8766;;;;
2019/07/24 04:14:32;;;;;;;9.5;7;;;;;;;20.88;74.30664;961.8709;;;;
2019/07/24 04:16:57;;;;;;;11.5;7.2;;;;;;;20.88;74.45996;961.8585;;;;
2019/07/24 04:19:22;;;;;;;9.7;7.1;;;;;;;20.91;74.03027;961.8753;;;;
2019/07/24 04:21:47;;;;;;;10.8;7.5;;;;;;;20.88;74.33008;961.8884;;;;
2019/07/24 04:24:12;;;;;;;13.2;7.6;;;;;;;20.79;74.59863;961.9072;;;;
2019/07/24 04:26:37;;;;;;;9.4;7.2;;;;;;;20.84;74.21875;961.9162;;;;
2019/07/24 04:29:02;;;;;;;8.8;7.3;;;;;;;20.9;73.7207;962.0106;;;;
2019/07/24 04:31:27;;;;;;;11.3;7.5;;;;;;;20.9;73.47363;961.9742;;;;
2019/07/24 04:33:52;;;;;;;10.4;7.5;;;;;;;20.91;73.72266;961.9285;;;;
2019/07/24 04:36:18;;;;;;;12.7;7.7;;;;;;;20.92;73.71191;961.8678;;;;
2019/07/24 04:38:43;;;;;;;9.8;7.5;;;;;;;21;73.01953;961.8234;;;;
2019/07/24 04:41:08;;;;;;;8.6;7.2;;;;;;;20.95;73.76465;961.8109;;;;
2019/07/24 04:43:33;;;;;;;10.6;7.9;;;;;;;20.97;74.07422;961.8554;;;;
2019/07/24 04:45:58;;;;;;;13.2;7.2;;;;;;;20.99;73.95996;961.8946;;;;
2019/07/24 04:48:23;;;;;;;8.7;7.6;;;;;;;20.91;73.96973;961.8836;;;;
2019/07/24 04:50:48;;;;;;;11.8;7.4;;;;;;;20.96;73.73145;961.9473;;;;
2019/07/24 04:53:13;;;;;;;10.5;7.8;;;;;;;20.95;73.69434;961.8881;;;;
2019/07/24 04:55:38;;;;;;;10.5;7.5;;;;;;;21.02;72.8457;961.9139;;;;
2019/07/24 04:58:03;;;;;;;10.1;7.6;;;;;;;21.06;73.46484;961.9523;;;;
2019/07/24 05:00:28;;;;;;;11.9;7.5;;;;;;;21.19;72.99121;961.9117;;;;
2019/07/24 05:02:53;;;;;;;8.9;7.6;;;;;;;21.21;73.36035;961.8965;;;;
2019/07/24 05:05:19;;;;;;;10.7;7.4;;;;;;;21.25;73.75488;961.9064;;;;
2019/07/24 05:07:44;;;;;;;11.5;7.7;;;;;;;21.22;73.69141;961.9584;;;;
2019/07/24 05:10:09;;;;;;;10.5;7.5;;;;;;;21.27;73.00391;961.9634;;;;
2019/07/24 05:12:34;;;;;;;11.4;7.9;;;;;;;21.28;73.17188;961.9373;;;;
2019/07/24 05:14:59;;;;;;;9.9;7.7;;;;;;;21.26;73.2041;961.9102;;;;
2019/07/24 05:17:24;;;;;;;10.1;8;;;;;;;21.18;72.93164;961.8614;;;;
2019/07/24 05:19:49;;;;;;;10.5;7.8;;;;;;;21.27;72.55566;961.8689;;;;
2019/07/24 05:22:15;;;;;;;8.7;7.8;;;;;;;21.22;73.37305;961.873;;;;
2019/07/24 05:24:39;;;;;;;12.4;8.1;;;;;;;21.29;73.01953;961.9411;;;;
2019/07/24 05:27:04;;;;;;;13.7;8;;;;;;;21.26;73.51074;961.8895;;;;
2019/07/24 05:29:30;;;;;;;11.1;8;;;;;;;21.31;73.23535;961.9618;;;;
2019/07/24 05:31:55;;;;;;;11.7;7.7;;;;;;;21.39;72.70703;961.9604;;;;
2019/07/24 05:34:20;;;;;;;12.1;8.3;;;;;;;21.41;72.96777;961.9849;;;;
2019/07/24 05:36:45;;;;;;;12;7.7;;;;;;;21.42;73.39551;961.9764;;;;
2019/07/24 05:39:10;;;;;;;11.8;8.7;;;;;;;21.43;72.62891;961.9886;;;;
2019/07/24 05:41:35;;;;;;;10.9;7.7;;;;;;;21.54;72.13867;962.0253;;;;
2019/07/24 05:44:00;;;;;;;11.1;8.2;;;;;;;21.58;72.06348;962.0389;;;;
2019/07/24 05:46:25;;;;;;;10.3;7.6;;;;;;;21.66;72.36035;962.0182;;;;
2019/07/24 05:48:50;;;;;;;12;8.4;;;;;;;21.74;72.04297;961.9998;;;;
2019/07/24 05:51:15;;;;;;;12.7;7.9;;;;;;;21.69;71.93945;962.0158;;;;
2019/07/24 05:53:40;;;;;;;10.5;7.5;;;;;;;21.79;71.70898;961.9856;;;;
2019/07/24 05:56:06;;;;;;;11.8;7.3;;;;;;;21.89;70.98047;961.9392;;;;
2019/07/24 05:58:30;;;;;;;11.2;7.6;;;;;;;21.97;70.87598;961.9444;;;;
2019/07/24 06:00:56;;;;;;;9.8;8;;;;;;;22.06;69.0332;961.9358;;;;
2019/07/24 06:03:21;;;;;;;9.9;7.2;;;;;;;22.17;69.57129;961.9311;;;;
2019/07/24 06:05:46;;;;;;;12.9;8;;;;;;;22.25;69.41895;961.9292;;;;
2019/07/24 06:08:11;;;;;;;10.9;7;;;;;;;22.33;68.83984;961.9398;;;;
2019/07/24 06:10:36;;;;;;;10.9;8.4;;;;;;;22.56;66.99609;961.8953;;;;
2019/07/24 06:13:01;;;;;;;64.8;9.2;;;;;;;22.5;67.63672;961.8884;;;;
2019/07/24 06:15:27;;;;;;;11.3;6.7;;;;;;;22.53;68.69336;961.853;;;;
2019/07/24 06:17:52;;;;;;;11.9;7.6;;;;;;;22.59;68.5498;961.8324;;;;
2019/07/24 06:20:17;;;;;;;9.6;7.3;;;;;;;22.67;66.93066;961.8519;;;;
2019/07/24 06:22:42;;;;;;;7.8;6.6;;;;;;;22.78;67.0166;961.8692;;;;
2019/07/24 06:25:10;;;;;;;13.1;7.3;;;;;;;22.89;66.12109;961.8538;;;;
2019/07/24 06:27:35;;;;;;;12.2;7.2;;;;;;;23;66.12695;961.8279;;;;
2019/07/24 06:30:00;;;;;;;11.5;6.9;;;;;;;23.11;65.59766;961.8568;;;;
2019/07/24 06:32:26;;;;;;;9.7;6.7;;;;;;;23.17;65.16895;961.8683;;;;
2019/07/24 06:34:51;;;;;;;9.2;6.9;;;;;;;23.2;65.46875;961.827;;;;
2019/07/24 06:37:16;;;;;;;9.1;6.3;;;;;;;23.25;66.04492;961.8597;;;;
2019/07/24 06:39:41;;;;;;;9.4;6.4;;;;;;;23.28;66.24902;961.9472;;;;
2019/07/24 06:42:06;;;;;;;10.4;7;;;;;;;23.32;65.2373;961.9217;;;;
2019/07/24 06:44:31;;;;;;;9.1;5.8;;;;;;;23.35;65.77539;961.9307;;;;
2019/07/24 06:46:56;;;;;;;8.5;6;;;;;;;23.53;65.24512;961.9043;;;;
2019/07/24 06:49:21;;;;;;;6.2;5.3;;;;;;;23.58;64.88477;961.8738;;;;
2019/07/24 06:51:46;;;;;;;7.5;6;;;;;;;23.63;63.37305;961.9347;;;;
2019/07/24 06:54:11;;;;;;;7.5;5.7;;;;;;;23.62;65.375;961.9801;;;;
2019/07/24 06:56:36;;;;;;;7.6;5.6;;;;;;;23.83;62.21582;961.9216;;;;
2019/07/24 06:59:02;;;;;;;6.7;5.1;;;;;;;23.79;62.38867;961.9265;;;;
2019/07/24 07:01:27;;;;;;;6.5;5.2;;;;;;;23.86;63.3125;961.8808;;;;
2019/07/24 07:03:52;;;;;;;11.6;5.3;;;;;;;23.88;63.23047;961.8914;;;;
2019/07/24 07:06:17;;;;;;;6.4;5;;;;;;;23.99;63.76758;961.907;;;;
2019/07/24 07:08:42;;;;;;;7;4.8;;;;;;;24.01;63.0957;961.938;;;;
2019/07/24 07:11:07;;;;;;;8;5.2;;;;;;;24.09;63.62891;961.9199;;;;
2019/07/24 07:13:33;;;;;;;10.3;5.2;;;;;;;24.04;63.87012;961.9572;;;;
2019/07/24 07:15:57;;;;;;;5.8;4.4;;;;;;;24.18;61.91016;961.9213;;;;
2019/07/24 07:18:22;;;;;;;9.5;4.5;;;;;;;24.32;61.31055;961.9295;;;;
2019/07/24 07:20:47;;;;;;;6.3;5;;;;;;;24.27;62.52637;961.892;;;;
2019/07/24 07:23:13;;;;;;;9.9;5;;;;;;;24.31;62.91309;961.9496;;;;
2019/07/24 07:25:38;;;;;;;7.8;4.5;;;;;;;24.51;59.7334;961.9447;;;;
2019/07/24 07:28:03;;;;;;;10.2;4.5;;;;;;;24.62;61.05469;961.8917;;;;
2019/07/24 07:30:28;;;;;;;7.8;4.8;;;;;;;24.69;60.51758;961.8953;;;;
2019/07/24 07:32:53;;;;;;;8.5;4.8;;;;;;;24.75;60.93066;961.976;;;;
2019/07/24 07:35:18;;;;;;;5.1;4.2;;;;;;;24.76;61.43066;961.9779;;;;
2019/07/24 07:37:43;;;;;;;6.7;4.7;;;;;;;24.76;60.71777;962.048;;;;
2019/07/24 07:40:08;;;;;;;6.2;4.6;;;;;;;24.86;59.54199;962.0598;;;;
2019/07/24 07:42:34;;;;;;;6.9;4.7;;;;;;;25;61.59473;962.0675;;;;
2019/07/24 07:44:59;;;;;;;6.4;4.3;;;;;;;24.98;59.8916;962.0759;;;;
2019/07/24 07:47:24;;;;;;;10.2;4.9;;;;;;;25.03;60.20605;962.0901;;;;
2019/07/24 07:49:49;;;;;;;7.8;4.6;;;;;;;25.04;60.32715;962.0762;;;;
2019/07/24 07:52:14;;;;;;;7.8;4.4;;;;;;;25.34;57.10547;962.1255;;;;
2019/07/24 07:54:39;;;;;;;20.1;5.7;;;;;;;25.42;58.78418;962.1085;;;;
2019/07/24 07:57:04;;;;;;;9.3;4.9;;;;;;;25.4;59.11523;962.1044;;;;
2019/07/24 07:59:29;;;;;;;9;4.3;;;;;;;25.38;58.75391;962.0809;;;;
2019/07/24 08:01:54;;;;;;;6.2;4.6;;;;;;;25.45;59.13379;962.0613;;;;
2019/07/24 08:04:19;;;;;;;5.7;4.4;;;;;;;25.52;58.6543;962.0598;;;;
2019/07/24 08:06:45;;;;;;;7;4.5;;;;;;;25.57;58.94531;962.0948;;;;
2019/07/24 08:09:10;;;;;;;7.4;4.3;;;;;;;25.67;59.28125;962.0612;;;;
2019/07/24 08:11:35;;;;;;;7.1;4.7;;;;;;;25.7;58.95117;962.0591;;;;
2019/07/24 08:14:00;;;;;;;4.7;4.2;;;;;;;25.82;58.8252;962.0575;;;;
2019/07/24 08:16:25;;;;;;;7.7;4.5;;;;;;;25.83;58.59863;962.0815;;;;
2019/07/24 08:18:50;;;;;;;7.7;4.4;;;;;;;25.91;58.69238;962.1094;;;;
2019/07/24 08:21:15;;;;;;;7.8;4.5;;;;;;;25.92;58.44336;962.1383;;;;
2019/07/24 08:23:41;;;;;;;7.6;4.4;;;;;;;25.96;57.60254;962.0591;;;;
2019/07/24 08:26:05;;;;;;;6.8;4.3;;;;;;;26.1;56.85742;961.9838;;;;
2019/07/24 08:28:30;;;;;;;5;4.2;;;;;;;26.23;56.92188;962.0303;;;;
2019/07/24 08:30:55;;;;;;;6.3;4.4;;;;;;;26.31;55.38184;962.0087;;;;
2019/07/24 08:33:21;;;;;;;6.2;4.3;;;;;;;26.25;56.6748;962.0494;;;;
2019/07/24 08:35:46;;;;;;;8.4;4.4;;;;;;;26.3;56.75195;962.0408;;;;
2019/07/24 08:38:11;;;;;;;7.9;4.8;;;;;;;26.44;56.48242;962.0355;;;;
2019/07/24 08:40:36;;;;;;;5.9;4.6;;;;;;;26.47;56.71289;962.0234;;;;
2019/07/24 08:43:01;;;;;;;5.7;4.1;;;;;;;26.51;54.76172;962.0508;;;;
2019/07/24 08:45:26;;;;;;;5.7;4.6;;;;;;;26.66;55.49707;962.0278;;;;
2019/07/24 08:47:52;;;;;;;6.2;4.3;;;;;;;26.77;53.98145;962.0524;;;;
2019/07/24 08:50:17;;;;;;;4.8;4.2;;;;;;;26.88;54.34082;962.0458;;;;
2019/07/24 08:52:42;;;;;;;6.5;4.5;;;;;;;26.96;53.07324;962.0463;;;;
2019/07/24 08:55:07;;;;;;;4.7;3.9;;;;;;;27.17;52.63184;962.037;;;;
2019/07/24 08:57:33;;;;;;;4.8;4.3;;;;;;;27.08;53.03906;962.0958;;;;
2019/07/24 08:59:58;;;;;;;8.3;4.7;;;;;;;26.98;54.30469;962.0889;;;;
2019/07/24 09:02:23;;;;;;;5.6;4.2;;;;;;;26.97;54.03027;962.087;;;;
2019/07/24 09:04:48;;;;;;;5.7;4.3;;;;;;;26.96;54.68457;962.0776;;;;
2019/07/24 09:07:13;;;;;;;5.1;4.2;;;;;;;26.97;53.20605;962.056;;;;
2019/07/24 09:09:39;;;;;;;9.1;4.3;;;;;;;26.95;54.27832;962.05;;;;
2019/07/24 09:12:04;;;;;;;8.7;4.5;;;;;;;26.99;54.1875;961.9883;;;;
2019/07/24 09:14:29;;;;;;;10.6;4.8;;;;;;;27.16;53.27539;962.0131;;;;
2019/07/24 09:16:54;;;;;;;5.3;4.3;;;;;;;27.16;52.97754;961.9821;;;;
2019/07/24 09:19:19;;;;;;;8.9;4.5;;;;;;;27.51;50.67383;962.0096;;;;
2019/07/24 09:21:44;;;;;;;7.3;5.3;;;;;;;27.46;50.8125;961.9291;;;;
2019/07/24 09:24:10;;;;;;;26.9;5.3;;;;;;;27.5;51.6416;961.9113;;;;
2019/07/24 09:26:39;;;;;;;8.6;4.8;;;;;;;27.52;51.71582;961.944;;;;
2019/07/24 09:29:05;;;;;;;6.4;4.7;;;;;;;27.54;54.14551;961.9817;;;;
2019/07/24 09:31:30;;;;;;;8;5.1;;;;;;;27.58;52.12891;961.9881;;;;
2019/07/24 09:33:55;;;;;;;5.2;4.5;;;;;;;27.69;51.45996;961.9196;;;;
2019/07/24 09:36:20;;;;;;;7.7;4.7;;;;;;;27.71;53.79688;961.9278;;;;
2019/07/24 09:38:45;;;;;;;8.4;4.3;;;;;;;27.88;51.80469;961.9296;;;;
2019/07/24 09:41:10;;;;;;;6.5;4.6;;;;;;;28.03;50.87598;961.9061;;;;
2019/07/24 09:43:36;;;;;;;6.2;4.7;;;;;;;28.09;51.45801;961.925;;;;
2019/07/24 09:46:01;;;;;;;4.9;4.1;;;;;;;28.05;51.5498;961.92;;;;
2019/07/24 09:48:26;;;;;;;7;4.4;;;;;;;28.06;51.70703;961.9214;;;;
2019/07/24 09:50:51;;;;;;;6;4.4;;;;;;;28.11;51.06543;961.8798;;;;
2019/07/24 09:53:16;;;;;;;6.8;4.6;;;;;;;28.48;49.98047;961.8727;;;;
2019/07/24 09:55:41;;;;;;;5.9;4.5;;;;;;;28.75;48.18848;961.8987;;;;
2019/07/24 09:58:06;;;;;;;6.3;5;;;;;;;28.89;45.99609;961.8722;;;;
2019/07/24 10:00:31;;;;;;;6.2;4.4;;;;;;;28.91;45.93652;961.8407;;;;
2019/07/24 10:02:57;;;;;;;6.1;4.9;;;;;;;29.06;44.63184;961.8692;;;;
2019/07/24 10:05:22;;;;;;;4.9;4.4;;;;;;;29.19;45.22168;961.8805;;;;
2019/07/24 10:07:47;;;;;;;6.8;5.2;;;;;;;29.15;45.40918;961.7826;;;;
2019/07/24 10:10:12;;;;;;;9.2;4.8;;;;;;;29.02;46.58496;961.7673;;;;
2019/07/24 10:12:37;;;;;;;6.3;4.8;;;;;;;29.32;45.03027;961.7864;;;;
2019/07/24 10:15:02;;;;;;;7.5;4.8;;;;;;;29.27;45.90137;961.795;;;;
2019/07/24 10:17:28;;;;;;;6.1;4.6;;;;;;;29.27;46.44141;961.8329;;;;
2019/07/24 10:19:53;;;;;;;9.6;4.4;;;;;;;29.48;44.86621;961.848;;;;
2019/07/24 10:22:18;;;;;;;8.6;5.2;;;;;;;29.58;45.30859;961.8018;;;;
2019/07/24 10:24:43;;;;;;;5.9;4.8;;;;;;;29.46;45.47656;961.8173;;;;
2019/07/24 10:27:08;;;;;;;8.5;5;;;;;;;29.5;44.97656;961.8517;;;;
2019/07/24 10:29:33;;;;;;;8.6;5;;;;;;;29.9;43.2959;961.8293;;;;
2019/07/24 10:31:59;;;;;;;6.5;5;;;;;;;29.96;42.29199;961.7874;;;;
2019/07/24 10:34:24;;;;;;;6.1;4.9;;;;;;;29.98;41.41602;961.7661;;;;
2019/07/24 10:36:49;;;;;;;7;4.9;;;;;;;30.28;41.04688;961.7471;;;;
2019/07/24 10:39:14;;;;;;;5.1;4.6;;;;;;;30.17;39.99023;961.7267;;;;
2019/07/24 10:41:39;;;;;;;5.3;4.6;;;;;;;30.22;40.72852;961.7472;;;;
2019/07/24 10:46:30;;;;;;;5.4;4.6;;;;;;;30.23;40.16406;961.7711;;;;
2019/07/24 10:48:55;;;;;;;5.1;4.6;;;;;;;30;40.10742;961.7608;;;;
2019/07/24 10:51:20;;;;;;;5.8;4.8;;;;;;;29.86;39.96289;961.7497;;;;
2019/07/24 10:53:45;;;;;;;5.9;4.8;;;;;;;29.74;42.15137;961.6948;;;;
2019/07/24 10:56:10;;;;;;;91.4;11.7;;;;;;;30;40.57617;961.6689;;;;
2019/07/24 10:58:35;;;;;;;5.9;4.3;;;;;;;30.33;39.83691;961.6467;;;;
2019/07/24 11:01:00;;;;;;;16.8;5.8;;;;;;;30.5;40.35547;961.7114;;;;
2019/07/24 11:03:25;;;;;;;5;4.5;;;;;;;30.47;40.02832;961.6465;;;;
2019/07/24 11:05:51;;;;;;;5;4.4;;;;;;;30.85;38.7373;961.5636;;;;
2019/07/24 11:08:16;;;;;;;7.7;4.7;;;;;;;30.78;39.40527;961.6069;;;;
2019/07/24 11:10:41;;;;;;;7.9;4.7;;;;;;;30.87;39.13574;961.5733;;;;
2019/07/24 11:13:06;;;;;;;5.7;4.7;;;;;;;30.91;38.53711;961.6195;;;;
2019/07/24 11:15:31;;;;;;;6;4.6;;;;;;;30.86;38.36426;961.6174;;;;
2019/07/24 11:17:56;;;;;;;5.1;4.6;;;;;;;31.01;37.3877;961.6731;;;;
2019/07/24 11:20:21;;;;;;;6.2;4.5;;;;;;;31.35;33.54395;961.6252;;;;
2019/07/24 11:22:46;;;;;;;5.3;4.8;;;;;;;31.12;34.76953;961.6251;;;;
2019/07/24 11:25:11;;;;;;;5.7;4.4;;;;;;;31.15;36.1582;961.6454;;;;
2019/07/24 11:27:37;;;;;;;7.6;4.5;;;;;;;31.09;36.63477;961.6121;;;;
2019/07/24 11:30:02;;;;;;;5.9;4.8;;;;;;;31.17;35.97949;961.6322;;;;
2019/07/24 11:32:27;;;;;;;5.4;4.9;;;;;;;30.89;36.77539;961.5413;;;;
2019/07/24 11:34:52;;;;;;;7.9;6.3;;;;;;;30.88;37.4375;961.5442;;;;
2019/07/24 11:37:17;;;;;;;6.3;4.9;;;;;;;31.39;35.16406;961.5511;;;;
2019/07/24 11:39:42;;;;;;;6.6;4.8;;;;;;;31.43;36.03516;961.5608;;;;
2019/07/24 11:42:07;;;;;;;6.3;4.8;;;;;;;31.61;36.03809;961.5336;;;;
2019/07/24 11:44:33;;;;;;;6.2;4.4;;;;;;;31.91;34.69727;961.5826;;;;
2019/07/24 11:46:58;;;;;;;5.8;4.1;;;;;;;31.85;33.60547;961.576;;;;
2019/07/24 11:49:23;;;;;;;5.7;4.2;;;;;;;31.86;32.37402;961.541;;;;
2019/07/24 11:51:48;;;;;;;5.4;4.9;;;;;;;31.8;34.80957;961.4711;;;;
2019/07/24 11:54:14;;;;;;;5.7;4.7;;;;;;;31.64;35.81055;961.4717;;;;
2019/07/24 11:56:39;;;;;;;5.4;4.9;;;;;;;31.68;36.64746;961.4531;;;;
2019/07/24 11:59:04;;;;;;;6.4;4.3;;;;;;;31.7;34.5127;961.4196;;;;
2019/07/24 12:01:29;;;;;;;5.4;4.3;;;;;;;31.97;35.40234;961.4158;;;;
2019/07/24 12:03:54;;;;;;;6.2;4.8;;;;;;;32.24;33.45313;961.3516;;;;
2019/07/24 12:06:19;;;;;;;8.3;4.8;;;;;;;32.49;33.95508;961.4378;;;;
2019/07/24 12:08:45;;;;;;;6.5;4.9;;;;;;;32.37;34.15137;961.3678;;;;
2019/07/24 12:11:10;;;;;;;5.1;4.6;;;;;;;32.37;33.48633;961.3618;;;;
2019/07/24 12:13:35;;;;;;;7.8;4.7;;;;;;;32.34;33.87207;961.331;;;;
2019/07/24 12:16:00;;;;;;;7.4;4.7;;;;;;;32.15;33.83301;961.3041;;;;
2019/07/24 12:18:25;;;;;;;12.2;4.9;;;;;;;32.21;34.49023;961.3144;;;;
2019/07/24 12:20:50;;;;;;;9.9;5;;;;;;;32.39;33.80273;961.295;;;;
2019/07/24 12:23:15;;;;;;;6.3;4.7;;;;;;;32.38;33.93555;961.2941;;;;
2019/07/24 12:25:41;;;;;;;29.4;6.9;;;;;;;32.49;33.61719;961.2784;;;;
2019/07/24 12:28:06;;;;;;;7.3;4.9;;;;;;;32.31;33.3252;961.2483;;;;
2019/07/24 12:30:31;;;;;;;5.3;4.8;;;;;;;32.62;33.58984;961.2402;;;;
2019/07/24 12:32:56;;;;;;;16.5;5.9;;;;;;;32.86;34.0918;961.2377;;;;
2019/07/24 12:35:21;;;;;;;10.8;4.9;;;;;;;32.88;33.12598;961.2144;;;;
2019/07/24 12:37:46;;;;;;;6.4;4.6;;;;;;;33.11;32.04004;961.2395;;;;
2019/07/24 12:40:12;;;;;;;6.4;4.7;;;;;;;33.35;32.85645;961.2302;;;;
2019/07/24 12:42:37;;;;;;;7.1;4.8;;;;;;;33.51;31.5957;961.2239;;;;
2019/07/24 12:46:14;;;;;;;5.6;4.6;;;;;;;34.07;31.08887;961.2277;;;;
2019/07/24 12:48:40;;;;;;;6.9;4.8;;;;;;;34.12;30.29004;961.2838;;;;
2019/07/24 12:51:05;;;;;;;5.8;4.5;;;;;;;34.25;30.39648;961.2637;;;;
2019/07/24 12:53:30;;;;;;;6.6;4.5;;;;;;;34.21;30.41797;961.162;;;;
2019/07/24 12:55:55;;;;;;;5.9;4.8;;;;;;;34.44;30.17871;961.1747;;;;
2019/07/24 12:58:20;;;;;;;5.4;4.5;;;;;;;34.18;30.27051;961.1881;;;;
2019/07/24 13:00:45;;;;;;;6.9;4.5;;;;;;;34.09;32.63086;961.1583;;;;
2019/07/24 13:03:10;;;;;;;5.3;4.8;;;;;;;34.43;30.73633;961.1306;;;;
2019/07/24 13:05:35;;;;;;;4.7;4.3;;;;;;;34.63;30.34961;961.0406;;;;
2019/07/24 13:08:00;;;;;;;7.6;4.9;;;;;;;34.37;30.85352;961.0708;;;;
2019/07/24 13:10:26;;;;;;;8.9;4.6;;;;;;;34.56;30.7334;961.0693;;;;
2019/07/24 13:12:51;;;;;;;5.4;4.8;;;;;;;34.45;30.38574;961.0441;;;;
2019/07/24 13:15:16;;;;;;;5.9;4.8;;;;;;;34.41;30.73535;961.0342;;;;
2019/07/24 13:17:41;;;;;;;4.8;4.3;;;;;;;34.43;31.56152;961.0736;;;;
2019/07/24 13:20:06;;;;;;;6.9;4.9;;;;;;;34.36;30.69531;961.0407;;;;
2019/07/24 13:22:31;;;;;;;5.7;4.5;;;;;;;34.61;29.44922;961.0961;;;;
2019/07/24 13:24:56;;;;;;;5.3;4.8;;;;;;;34.78;29.07129;961.1114;;;;
2019/07/24 13:27:21;;;;;;;6;4.8;;;;;;;34.47;29.85254;961.0742;;;;
2019/07/24 13:29:46;;;;;;;7.3;4.8;;;;;;;33.77;29.94043;961.0552;;;;
2019/07/24 13:32:11;;;;;;;6.1;5;;;;;;;33.93;29.66016;961.1066;;;;
2019/07/24 13:34:36;;;;;;;6.7;4.5;;;;;;;34.28;28.80859;961.0922;;;;
2019/07/24 13:37:02;;;;;;;5.4;4.4;;;;;;;34.3;29.75684;961.0073;;;;
2019/07/24 13:39:27;;;;;;;6.1;4.8;;;;;;;34.66;29.41504;961.0637;;;;
2019/07/24 13:41:52;;;;;;;8.6;5;;;;;;;34.56;29.48145;961.085;;;;
2019/07/24 13:44:17;;;;;;;13;5.4;;;;;;;34.53;29.26172;961.0601;;;;
2019/07/24 13:46:42;;;;;;;11.2;5.3;;;;;;;34.74;29.50586;961.0739;;;;
2019/07/24 13:49:07;;;;;;;6.2;4.6;;;;;;;34.8;28.59766;961.0262;;;;
2019/07/24 13:51:32;;;;;;;5.5;4.3;;;;;;;35.03;28.22266;960.9906;;;;
2019/07/24 13:53:57;;;;;;;8.6;4.9;;;;;;;34.81;28.9502;960.9604;;;;
2019/07/24 13:56:22;;;;;;;10.5;5.7;;;;;;;34.7;29.34473;960.9034;;;;
2019/07/24 13:58:47;;;;;;;5.1;4.6;;;;;;;34.88;28.90625;960.9047;;;;
2019/07/24 14:01:12;;;;;;;7.4;4.8;;;;;;;34.99;28.88965;960.8633;;;;
2019/07/24 14:03:38;;;;;;;7.1;4.9;;;;;;;34.88;28.68848;960.8463;;;;
2019/07/24 14:06:03;;;;;;;6.2;4.8;;;;;;;34.81;28.79297;960.8283;;;;
2019/07/24 14:08:28;;;;;;;5.2;4.7;;;;;;;34.61;28.93848;960.8336;;;;
2019/07/24 14:10:53;;;;;;;4.9;4.4;;;;;;;34.86;27.78809;960.7704;;;;
2019/07/24 14:13:18;;;;;;;13.9;5.6;;;;;;;34.99;27.90527;960.79;;;;
2019/07/24 14:15:43;;;;;;;6.3;4.6;;;;;;;35.16;27.85449;960.774;;;;